Time;durP1;ratioP1;P1;durP2;ratioP2;P2;SDS_P1;SDS_P2;PMS_P1;PMS_P2;Temp;Humidity;BMP_temperature;BMP_pressure;BME280_temperature;BME280_humidity;BME280_pressure;Samples;Min_cycle;Max_cycle;Signal;HPM_P1;HPM_P2
2021/11/11 00:01:05;;;;;;;30.83;19.77;;;1.50;99.90;;;;;;5052920;28;20039;-63
2021/11/11 00:03:31;;;;;;;37.90;21.05;;;1.60;99.90;;;;;;5052974;28;20426;-63
2021/11/11 00:05:57;;;;;;;37.13;22.15;;;1.50;99.90;;;;;;5051967;28;20033;-62
2021/11/11 00:08:24;;;;;;;36.92;22.55;;;1.50;99.90;;;;;;5052708;28;20020;-61
2021/11/11 00:10:49;;;;;;;43.08;24.45;;;1.40;99.90;;;;;;5052711;28;20090;-64
2021/11/11 00:13:19;;;;;;;38.92;22.30;;;1.50;99.90;;;;;;5052300;28;20426;-62
2021/11/11 00:15:46;;;;;;;36.35;21.80;;;1.50;99.90;;;;;;5051796;28;20036;-63
2021/11/11 00:18:12;;;;;;;39.33;23.75;;;1.50;99.90;;;;;;5052679;28;20513;-64
2021/11/11 00:20:37;;;;;;;37.95;22.67;;;1.40;99.90;;;;;;5052508;28;20131;-62
2021/11/11 00:23:03;;;;;;;40.38;23.02;;;1.50;99.90;;;;;;5052486;28;20025;-63
2021/11/11 00:25:29;;;;;;;42.05;23.42;;;1.60;99.90;;;;;;5051342;28;20437;-61
2021/11/11 00:27:56;;;;;;;39.20;21.88;;;1.60;99.90;;;;;;5052452;28;20080;-61
2021/11/11 00:30:22;;;;;;;33.47;21.27;;;1.60;99.90;;;;;;5051989;28;20021;-63
2021/11/11 00:32:50;;;;;;;39.20;20.95;;;1.50;99.90;;;;;;5052266;28;20044;-60
2021/11/11 00:35:24;;;;;;;35.08;19.38;;;1.40;99.90;;;;;;5051433;28;20384;-62
2021/11/11 00:37:51;;;;;;;36.97;20.55;;;1.50;99.90;;;;;;5052158;28;20474;-59
2021/11/11 00:40:17;;;;;;;38.00;21.20;;;1.50;99.90;;;;;;5051912;28;20099;-60
2021/11/11 00:42:45;;;;;;;35.88;19.90;;;1.40;99.90;;;;;;5051913;28;20023;-61
2021/11/11 00:45:12;;;;;;;33.80;19.92;;;1.50;99.90;;;;;;5051236;28;20025;-60
2021/11/11 00:47:38;;;;;;;40.38;22.55;;;1.50;99.90;;;;;;5051911;28;20094;-58
2021/11/11 00:50:07;;;;;;;40.47;22.45;;;1.90;99.90;;;;;;5052012;28;20079;-62
2021/11/11 00:52:33;;;;;;;41.90;23.33;;;1.30;99.90;;;;;;5051712;28;20394;-59
2021/11/11 00:55:00;;;;;;;52.03;25.65;;;1.20;99.90;;;;;;5051207;28;20116;-59
2021/11/11 00:57:26;;;;;;;54.53;26.67;;;1.30;99.90;;;;;;5051430;28;20119;-61
2021/11/11 00:59:51;;;;;;;48.58;25.38;;;1.30;99.90;;;;;;5051693;28;20025;-61
2021/11/11 01:02:17;;;;;;;62.85;27.17;;;1.20;99.90;;;;;;5052083;28;20506;-59
2021/11/11 01:04:43;;;;;;;54.03;28.65;;;1.30;99.90;;;;;;5051155;28;20082;-60
2021/11/11 01:07:09;;;;;;;50.28;27.02;;;1.40;99.90;;;;;;5051483;28;20060;-61
2021/11/11 01:09:37;;;;;;;48.88;25.75;;;1.40;99.90;;;;;;5051648;28;20382;-60
2021/11/11 01:12:03;;;;;;;46.45;24.95;;;1.30;99.90;;;;;;5051265;28;20530;-59
2021/11/11 01:14:29;;;;;;;46.50;24.92;;;1.30;99.90;;;;;;5050566;28;20033;-60
2021/11/11 01:16:56;;;;;;;41.72;22.70;;;1.20;99.90;;;;;;5051423;28;20086;-62
2021/11/11 01:19:22;;;;;;;43.70;22.38;;;1.30;99.90;;;;;;5051792;28;20029;-58
2021/11/11 01:21:49;;;;;;;40.53;22.30;;;1.30;99.90;;;;;;5051414;28;20479;-60
2021/11/11 01:24:15;;;;;;;44.85;23.13;;;1.50;99.90;;;;;;5050882;28;20028;-62
2021/11/11 01:26:41;;;;;;;41.67;23.60;;;1.50;99.90;;;;;;5049994;28;20053;-59
2021/11/11 01:29:07;;;;;;;40.72;21.88;;;1.40;99.90;;;;;;5051282;28;20078;-61
2021/11/11 01:31:32;;;;;;;43.80;23.02;;;1.30;99.90;;;;;;5051480;28;20025;-60
2021/11/11 01:33:58;;;;;;;40.63;22.48;;;1.40;99.90;;;;;;5051720;28;20021;-60
2021/11/11 01:36:24;;;;;;;41.30;22.15;;;1.30;99.90;;;;;;5050634;28;20506;-59
2021/11/11 01:38:49;;;;;;;42.03;22.35;;;1.30;99.90;;;;;;5051446;28;20126;-61
2021/11/11 01:41:15;;;;;;;47.75;23.98;;;1.90;99.90;;;;;;5050265;28;20025;-62
2021/11/11 01:43:41;;;;;;;45.17;23.40;;;1.30;99.90;;;;;;5051428;28;20024;-61
2021/11/11 01:46:07;;;;;;;46.58;25.95;;;1.30;99.90;;;;;;5050564;28;20025;-60
2021/11/11 01:48:32;;;;;;;50.88;25.52;;;1.30;99.90;;;;;;5051377;28;20092;-61
2021/11/11 01:50:58;;;;;;;45.78;24.30;;;1.30;99.90;;;;;;5051364;28;20017;-59
2021/11/11 01:53:24;;;;;;;48.50;24.90;;;1.20;99.90;;;;;;5051186;28;20475;-60
2021/11/11 01:55:51;;;;;;;48.22;26.42;;;1.90;99.90;;;;;;5050171;28;20040;-59
2021/11/11 01:58:18;;;;;;;52.28;26.55;;;1.40;99.90;;;;;;5051081;28;20025;-60
2021/11/11 02:00:48;;;;;;;52.30;25.77;;;1.30;99.90;;;;;;5051140;28;20029;-60
2021/11/11 02:03:17;;;;;;;50.33;25.23;;;1.30;99.90;;;;;;5051402;28;20064;-60
2021/11/11 02:05:43;;;;;;;48.28;26.20;;;1.40;99.90;;;;;;5050334;28;20039;-61
2021/11/11 02:08:09;;;;;;;51.40;25.30;;;1.80;99.90;;;;;;5051091;28;20422;-61
2021/11/11 02:10:36;;;;;;;54.58;25.75;;;1.40;99.90;;;;;;5053988;28;20024;-60
2021/11/11 02:13:04;;;;;;;53.70;27.25;;;1.30;99.90;;;;;;5055959;28;20048;-61
2021/11/11 02:15:30;;;;;;;47.08;24.65;;;1.40;99.90;;;;;;5050646;28;20041;-61
2021/11/11 02:17:57;;;;;;;49.70;25.98;;;1.40;99.90;;;;;;5051222;28;20064;-61
2021/11/11 02:20:31;;;;;;;51.53;25.38;;;1.30;99.90;;;;;;5051278;28;20021;-60
2021/11/11 02:22:59;;;;;;;54.95;28.10;;;1.30;99.90;;;;;;5050905;28;20017;-61
2021/11/11 02:25:26;;;;;;;52.40;27.67;;;1.30;99.90;;;;;;5050206;28;20028;-62
2021/11/11 02:27:55;;;;;;;52.10;26.40;;;1.20;99.90;;;;;;5051441;28;20017;-61
2021/11/11 02:30:23;;;;;;;50.47;28.55;;;1.20;99.90;;;;;;5050907;28;20049;-60
2021/11/11 02:32:50;;;;;;;54.58;28.27;;;1.20;99.90;;;;;;5051177;28;20429;-62
2021/11/11 02:35:17;;;;;;;50.42;27.05;;;1.20;99.90;;;;;;5049873;28;20506;-61
2021/11/11 02:37:43;;;;;;;60.13;28.35;;;1.00;99.90;;;;;;5053015;28;20112;-62
2021/11/11 02:40:13;;;;;;;50.25;26.83;;;1.10;99.90;;;;;;5055087;28;20032;-61
2021/11/11 02:42:41;;;;;;;42.17;25.27;;;1.00;99.90;;;;;;5054995;28;20025;-61
2021/11/11 02:45:13;;;;;;;58.33;29.02;;;0.90;99.90;;;;;;5037315;28;20056;-60
2021/11/11 02:47:39;;;;;;;53.30;27.73;;;0.80;99.90;;;;;;5054776;28;20462;-60
2021/11/11 02:50:06;;;;;;;53.03;27.38;;;0.90;99.90;;;;;;5054924;28;20095;-61
2021/11/11 02:52:32;;;;;;;51.17;26.70;;;0.90;99.90;;;;;;5054482;28;20079;-62
2021/11/11 02:54:58;;;;;;;43.65;27.10;;;1.00;99.90;;;;;;5053189;28;20025;-61
2021/11/11 02:57:30;;;;;;;51.60;28.75;;;1.00;99.90;;;;;;5053356;28;20394;-62
2021/11/11 02:59:58;;;;;;;52.03;27.65;;;1.00;99.90;;;;;;5054087;28;20037;-62
2021/11/11 03:02:28;;;;;;;47.00;27.58;;;1.10;99.90;;;;;;5054034;28;20109;-61
2021/11/11 03:04:54;;;;;;;45.63;27.27;;;1.00;99.90;;;;;;5054159;28;20087;-61
2021/11/11 03:07:20;;;;;;;46.63;26.95;;;0.90;99.90;;;;;;5053990;28;20040;-62
2021/11/11 03:09:47;;;;;;;44.42;26.65;;;0.90;99.90;;;;;;5054253;28;20021;-62
2021/11/11 03:12:13;;;;;;;70.43;30.10;;;1.20;99.90;;;;;;5054150;28;20029;-63
2021/11/11 03:14:40;;;;;;;53.78;28.00;;;1.10;99.90;;;;;;5053164;28;20391;-63
2021/11/11 03:17:06;;;;;;;48.42;26.92;;;1.20;99.90;;;;;;5053496;28;20041;-62
2021/11/11 03:19:33;;;;;;;57.88;31.35;;;1.10;99.90;;;;;;5053711;28;20029;-62
2021/11/11 03:21:59;;;;;;;62.75;30.13;;;1.10;99.90;;;;;;5053952;28;20086;-62
2021/11/11 03:24:25;;;;;;;69.80;31.00;;;1.50;99.90;;;;;;5052918;28;20029;-63
2021/11/11 03:26:50;;;;;;;67.32;30.50;;;1.00;99.90;;;;;;5053153;28;20024;-62
2021/11/11 03:29:16;;;;;;;46.67;26.52;;;1.00;99.90;;;;;;5053514;28;20040;-61
2021/11/11 03:31:42;;;;;;;47.22;25.95;;;1.00;99.90;;;;;;5053783;28;20025;-62
2021/11/11 03:34:08;;;;;;;44.78;26.50;;;1.00;99.90;;;;;;5053317;28;20021;-63
2021/11/11 03:36:34;;;;;;;66.93;26.92;;;0.90;99.90;;;;;;5052741;28;20033;-63
2021/11/11 03:38:59;;;;;;;118.85;29.70;;;0.90;99.90;;;;;;5054201;28;20035;-62
2021/11/11 03:41:25;;;;;;;39.97;24.58;;;1.60;99.90;;;;;;5053037;28;20475;-62
2021/11/11 03:43:51;;;;;;;121.15;32.83;;;1.00;99.90;;;;;;5055328;28;20025;-62
2021/11/11 03:46:17;;;;;;;57.70;26.80;;;1.70;99.90;;;;;;5053366;28;20025;-62
2021/11/11 03:48:44;;;;;;;43.05;26.02;;;1.00;99.90;;;;;;5053313;28;20036;-63
2021/11/11 03:51:10;;;;;;;51.28;25.67;;;1.40;99.90;;;;;;5053802;28;20043;-62
2021/11/11 03:53:36;;;;;;;127.78;26.58;;;1.90;99.90;;;;;;5054023;28;20483;-62
2021/11/11 03:56:01;;;;;;;43.30;22.17;;;1.00;99.90;;;;;;5052283;28;20036;-62
2021/11/11 03:58:27;;;;;;;40.35;23.52;;;0.80;99.90;;;;;;5052921;28;20035;-62
2021/11/11 04:00:53;;;;;;;69.32;24.50;;;0.90;99.90;;;;;;5053440;28;20033;-62
2021/11/11 04:03:19;;;;;;;38.05;22.83;;;0.80;99.90;;;;;;5053314;28;20029;-63
2021/11/11 04:05:45;;;;;;;44.15;24.40;;;1.40;99.90;;;;;;5052373;28;20502;-62
2021/11/11 04:08:10;;;;;;;42.20;24.92;;;0.90;99.90;;;;;;5053296;28;20029;-62
2021/11/11 04:10:36;;;;;;;81.10;26.35;;;1.00;99.90;;;;;;5053279;28;20017;-62
2021/11/11 04:13:04;;;;;;;41.75;24.45;;;1.40;99.90;;;;;;5053021;28;20029;-62
2021/11/11 04:15:30;;;;;;;39.88;23.38;;;0.90;99.90;;;;;;5052220;28;20438;-62
2021/11/11 04:17:57;;;;;;;41.83;24.02;;;1.50;99.90;;;;;;5053021;28;20452;-62
2021/11/11 04:20:23;;;;;;;38.67;24.00;;;0.80;99.90;;;;;;5052787;28;20025;-62
2021/11/11 04:22:49;;;;;;;49.97;26.33;;;2.30;99.90;;;;;;5052517;28;20105;-62
2021/11/11 04:25:20;;;;;;;37.97;23.33;;;0.70;99.90;;;;;;5051676;28;20529;-62
2021/11/11 04:28:25;;;;;;;65.57;26.63;;;0.80;99.90;;;;;;5052478;28;20033;-63
2021/11/11 04:30:39;;;;;;;44.00;27.00;;;1.40;99.90;;;;;;5048932;28;20037;-62
2021/11/11 04:33:07;;;;;;;50.47;28.08;;;1.70;99.90;;;;;;5053492;28;20046;-63
2021/11/11 04:35:33;;;;;;;43.25;25.05;;;0.60;99.90;;;;;;5051786;28;20032;-62
2021/11/11 04:43:24;;;;;;;41.95;26.55;;;0.60;99.90;;;;;;5052157;28;20056;-63
2021/11/11 04:46:07;;;;;;;42.88;26.48;;;0.60;99.90;;;;;;5051185;28;20036;-62
2021/11/11 04:49:09;;;;;;;47.60;26.38;;;1.00;99.90;;;;;;5051790;28;20032;-61
2021/11/11 05:04:41;;;;;;;37.88;24.88;;;0.60;99.90;;;;;;5049968;28;20155;-60
2021/11/11 05:07:07;;;;;;;40.22;26.58;;;0.40;99.90;;;;;;5050786;28;20031;-62
2021/11/11 05:09:33;;;;;;;38.05;24.20;;;0.30;99.90;;;;;;5051353;28;20096;-62
2021/11/11 05:11:58;;;;;;;40.38;24.63;;;0.20;99.90;;;;;;5051400;28;20476;-61
2021/11/11 05:14:24;;;;;;;47.28;26.58;;;0.30;99.90;;;;;;5050825;28;20052;-62
2021/11/11 05:16:50;;;;;;;58.00;25.55;;;0.40;99.90;;;;;;5051350;28;20091;-62
2021/11/11 05:19:15;;;;;;;37.08;23.85;;;0.30;99.90;;;;;;5051951;28;20033;-62
2021/11/11 05:21:41;;;;;;;43.05;25.33;;;0.30;99.90;;;;;;5051377;28;20032;-62
2021/11/11 05:24:07;;;;;;;47.05;25.90;;;0.20;99.90;;;;;;5051319;28;20399;-62
2021/11/11 05:26:33;;;;;;;45.42;25.85;;;0.20;99.90;;;;;;5041488;28;20116;-69
2021/11/11 05:28:59;;;;;;;41.55;25.10;;;0.10;99.90;;;;;;5050969;28;20021;-69
2021/11/11 05:31:24;;;;;;;42.88;25.80;;;0.10;99.90;;;;;;5051164;28;20545;-68
2021/11/11 05:33:50;;;;;;;42.72;24.83;;;0.10;99.90;;;;;;5051455;28;20442;-68
2021/11/11 05:36:15;;;;;;;46.28;24.90;;;0.10;99.90;;;;;;5050718;28;20390;-68
2021/11/11 05:38:41;;;;;;;47.10;26.38;;;0.10;99.90;;;;;;5050938;28;20036;-68
2021/11/11 05:41:07;;;;;;;44.53;25.58;;;0.10;99.90;;;;;;5051107;28;20063;-67
2021/11/11 05:43:33;;;;;;;44.08;26.02;;;0.10;99.90;;;;;;5051429;28;20040;-68
2021/11/11 05:45:59;;;;;;;41.83;25.20;;;0.00;99.90;;;;;;5050636;28;20036;-68
2021/11/11 05:48:24;;;;;;;39.38;25.02;;;0.10;99.90;;;;;;5050822;28;20510;-69
2021/11/11 05:50:50;;;;;;;37.60;23.73;;;0.10;99.90;;;;;;5051305;28;20025;-68
2021/11/11 05:53:16;;;;;;;40.55;24.80;;;1.00;99.90;;;;;;5051097;28;20147;-67
2021/11/11 05:55:42;;;;;;;45.53;25.85;;;0.00;99.90;;;;;;5050606;28;20021;-74
2021/11/11 05:58:08;;;;;;;48.33;26.40;;;0.10;99.90;;;;;;5050331;28;20029;-73
2021/11/11 06:00:34;;;;;;;54.70;29.50;;;0.30;99.90;;;;;;5050303;28;20494;-73
2021/11/11 06:02:59;;;;;;;61.92;33.40;;;1.30;99.90;;;;;;5051183;28;20044;-74
2021/11/11 06:05:26;;;;;;;51.63;29.02;;;0.80;99.90;;;;;;5050327;28;20079;-74
2021/11/11 06:07:53;;;;;;;59.33;29.88;;;0.50;99.90;;;;;;5050421;28;20576;-69
2021/11/11 06:10:19;;;;;;;53.78;28.75;;;0.40;99.90;;;;;;5051115;28;20099;-69
2021/11/11 06:12:44;;;;;;;51.30;27.27;;;0.10;99.90;;;;;;5053189;28;20108;-68
2021/11/11 06:15:10;;;;;;;44.88;25.52;;;0.00;99.90;;;;;;5054094;28;20036;-68
2021/11/11 06:17:36;;;;;;;45.95;25.98;;;0.00;99.90;;;;;;5054412;28;20021;-69
2021/11/11 06:20:18;;;;;;;43.03;25.92;;;-0.10;99.90;;;;;;5054626;28;20051;-69
2021/11/11 06:22:46;;;;;;;46.55;25.90;;;-0.10;99.90;;;;;;5054518;28;20371;-69
2021/11/11 06:25:12;;;;;;;46.83;25.00;;;-0.10;99.90;;;;;;5054229;28;20036;-69
2021/11/11 06:27:38;;;;;;;42.00;24.80;;;0.40;99.90;;;;;;5053876;28;20485;-69
2021/11/11 06:30:05;;;;;;;42.72;25.23;;;0.10;99.90;;;;;;5054564;28;20429;-69
2021/11/11 06:32:31;;;;;;;40.40;25.50;;;0.10;99.90;;;;;;5054503;28;20024;-69
2021/11/11 06:34:57;;;;;;;40.95;23.75;;;0.20;99.90;;;;;;5053688;28;20110;-70
2021/11/11 06:37:22;;;;;;;37.75;23.83;;;0.30;99.90;;;;;;5053801;28;20025;-72
2021/11/11 06:39:48;;;;;;;38.80;23.98;;;0.70;99.90;;;;;;5050919;28;20398;-72
2021/11/11 06:42:14;;;;;;;35.33;22.40;;;0.20;99.90;;;;;;5042755;28;20431;-71
2021/11/11 06:44:42;;;;;;;40.45;22.73;;;0.20;99.90;;;;;;5046120;28;20513;-69
2021/11/11 06:47:08;;;;;;;42.08;24.10;;;0.10;99.90;;;;;;5044422;28;20075;-71
2021/11/11 06:49:34;;;;;;;42.13;24.65;;;1.00;99.90;;;;;;5033805;28;20079;-71
2021/11/11 06:52:04;;;;;;;44.30;27.85;;;0.20;99.90;;;;;;5042030;28;20041;-70
2021/11/11 06:54:30;;;;;;;43.40;26.48;;;0.20;99.90;;;;;;5052923;28;20212;-70
2021/11/11 06:56:55;;;;;;;58.83;30.92;;;0.30;99.90;;;;;;5052331;28;20068;-70
2021/11/11 06:59:21;;;;;;;61.90;31.80;;;0.40;99.90;;;;;;5034455;28;20550;-67
2021/11/11 07:01:47;;;;;;;67.55;34.50;;;0.30;99.90;;;;;;5053856;28;20479;-63
2021/11/11 07:04:12;;;;;;;54.03;30.30;;;0.50;99.90;;;;;;5053770;28;20103;-66
2021/11/11 07:06:38;;;;;;;55.00;30.10;;;0.50;99.90;;;;;;5052880;28;20495;-65
2021/11/11 07:09:04;;;;;;;42.25;26.17;;;1.00;99.90;;;;;;5053713;28;20025;-64
2021/11/11 07:11:29;;;;;;;44.60;23.00;;;0.60;99.90;;;;;;5053295;28;20513;-66
2021/11/11 07:13:55;;;;;;;61.10;34.22;;;0.80;99.90;;;;;;5053764;28;20036;-66
2021/11/11 07:16:21;;;;;;;39.55;22.60;;;0.70;99.90;;;;;;5052848;28;20025;-64
2021/11/11 07:18:47;;;;;;;39.55;24.33;;;0.90;99.90;;;;;;5053667;28;20103;-65
2021/11/11 07:21:12;;;;;;;40.05;26.42;;;1.40;99.90;;;;;;5053465;28;20021;-65
2021/11/11 07:23:38;;;;;;;39.05;24.15;;;1.90;99.90;;;;;;5053645;28;20029;-65
2021/11/11 07:26:04;;;;;;;38.40;24.48;;;2.70;99.90;;;;;;5052487;28;20040;-65
2021/11/11 07:28:30;;;;;;;25.50;18.58;;;3.60;99.90;;;;;;5052956;28;20700;-65
2021/11/11 07:30:56;;;;;;;25.30;17.02;;;4.20;99.90;;;;;;5053562;28;20028;-64
2021/11/11 07:33:22;;;;;;;104.97;58.50;;;4.90;99.90;;;;;;5053229;28;20027;-65
2021/11/11 07:35:48;;;;;;;29.50;17.92;;;5.20;99.90;;;;;;5052832;28;20103;-66
2021/11/11 07:38:15;;;;;;;23.15;15.60;;;5.50;99.90;;;;;;5053403;28;20442;-66
2021/11/11 07:40:41;;;;;;;22.00;14.68;;;5.90;99.90;;;;;;5053227;28;20578;-63
2021/11/11 07:43:07;;;;;;;20.77;14.63;;;6.50;99.90;;;;;;5053051;28;20032;-64
2021/11/11 07:45:33;;;;;;;19.13;13.02;;;6.80;99.90;;;;;;5051813;28;20021;-64
2021/11/11 07:48:01;;;;;;;18.20;12.73;;;7.10;99.90;;;;;;5053329;28;20021;-65
2021/11/11 07:50:31;;;;;;;20.27;15.45;;;7.90;99.90;;;;;;5053600;28;20029;-64
2021/11/11 07:52:59;;;;;;;17.08;12.98;;;8.70;99.90;;;;;;5053428;28;20090;-66
2021/11/11 07:55:25;;;;;;;19.40;13.95;;;8.80;99.90;;;;;;5051960;28;20106;-64
2021/11/11 07:57:51;;;;;;;18.85;12.65;;;9.00;99.90;;;;;;5052802;28;20048;-66
2021/11/11 08:00:19;;;;;;;14.52;12.52;;;9.20;99.90;;;;;;5052588;28;20064;-65
2021/11/11 08:02:46;;;;;;;15.32;12.45;;;8.90;99.90;;;;;;5053325;28;20048;-65
2021/11/11 08:05:15;;;;;;;20.65;13.75;;;8.20;99.90;;;;;;5052360;28;20029;-65
2021/11/11 08:07:43;;;;;;;20.33;15.27;;;7.60;99.90;;;;;;5052587;28;20117;-65
2021/11/11 08:10:09;;;;;;;21.58;15.27;;;7.10;99.90;;;;;;5052427;28;20032;-66
2021/11/11 08:12:35;;;;;;;22.45;15.23;;;6.40;99.90;;;;;;5052143;28;20024;-65
2021/11/11 08:15:00;;;;;;;22.35;15.00;;;5.90;99.90;;;;;;5051507;28;20758;-65
2021/11/11 08:17:26;;;;;;;17.52;13.60;;;5.40;99.90;;;;;;5052607;28;20025;-65
2021/11/11 08:19:55;;;;;;;20.70;14.25;;;5.50;99.90;;;;;;5053039;28;20059;-64
2021/11/11 08:22:25;;;;;;;19.00;13.93;;;5.60;99.90;;;;;;5052965;28;20051;-66
2021/11/11 08:24:52;;;;;;;17.63;14.00;;;5.80;99.90;;;;;;5051769;28;20036;-65
2021/11/11 08:27:19;;;;;;;17.13;13.65;;;6.80;99.90;;;;;;5051846;28;20025;-64
2021/11/11 08:29:46;;;;;;;20.80;14.07;;;8.10;99.90;;;;;;5052356;28;20021;-65
2021/11/11 08:32:13;;;;;;;18.35;13.18;;;8.50;99.90;;;;;;5052346;28;20017;-65
2021/11/11 08:34:40;;;;;;;16.95;13.48;;;9.10;99.90;;;;;;5051135;28;20478;-65
2021/11/11 08:37:07;;;;;;;20.58;13.00;;;9.10;99.90;;;;;;5052253;28;20044;-66
2021/11/11 08:39:33;;;;;;;19.33;13.05;;;8.90;99.90;;;;;;5052109;28;20021;-64
2021/11/11 08:41:59;;;;;;;17.73;13.18;;;8.80;99.90;;;;;;5051510;28;20021;-65
2021/11/11 08:44:25;;;;;;;16.77;12.68;;;8.50;99.90;;;;;;5051273;28;20175;-66
2021/11/11 08:46:51;;;;;;;16.13;12.13;;;7.90;99.90;;;;;;5051559;28;20116;-65
2021/11/11 08:49:18;;;;;;;17.02;12.75;;;7.90;99.90;;;;;;5033984;28;20040;-65
2021/11/11 08:51:44;;;;;;;19.13;12.88;;;7.90;99.90;;;;;;5051629;28;20029;-65
2021/11/11 08:54:11;;;;;;;18.33;12.70;;;8.70;99.90;;;;;;5051856;28;20025;-66
2021/11/11 08:56:37;;;;;;;21.95;13.43;;;9.00;99.90;;;;;;5050466;28;20028;-66
2021/11/11 08:59:04;;;;;;;16.90;12.93;;;9.70;99.90;;;;;;5051221;28;20029;-66
2021/11/11 09:01:34;;;;;;;23.65;12.65;;;9.30;99.90;;;;;;5051713;28;20395;-66
2021/11/11 09:04:00;;;;;;;16.88;12.30;;;9.40;99.90;;;;;;5051449;28;20028;-66
2021/11/11 09:06:27;;;;;;;17.95;12.68;;;8.10;99.90;;;;;;5050646;28;20040;-65
2021/11/11 09:08:53;;;;;;;15.73;12.30;;;7.30;99.90;;;;;;5051429;28;20433;-65
2021/11/11 09:11:20;;;;;;;16.92;11.98;;;7.10;99.90;;;;;;5082405;22;20068;-65
2021/11/11 09:13:46;;;;;;;17.15;12.00;;;7.10;99.90;;;;;;5069836;28;20028;-65
2021/11/11 09:16:12;;;;;;;19.52;11.93;;;6.70;99.90;;;;;;5071623;28;20078;-65
2021/11/11 09:18:40;;;;;;;16.48;11.50;;;7.00;99.90;;;;;;5071685;28;20059;-65
2021/11/11 09:21:10;;;;;;;15.88;11.57;;;6.90;99.90;;;;;;5071686;28;20024;-66
2021/11/11 09:23:39;;;;;;;17.17;11.68;;;7.50;99.90;;;;;;5071537;28;20024;-65
2021/11/11 09:26:05;;;;;;;14.65;10.85;;;7.90;99.90;;;;;;5070782;28;20397;-65
2021/11/11 09:28:32;;;;;;;13.68;11.02;;;8.10;99.90;;;;;;5071555;28;20027;-66
2021/11/11 09:30:58;;;;;;;15.75;11.05;;;9.00;99.90;;;;;;5071604;28;20023;-64
2021/11/11 09:33:24;;;;;;;14.50;10.63;;;9.60;99.90;;;;;;5071727;28;20033;-67
2021/11/11 09:35:53;;;;;;;16.38;11.00;;;10.20;99.90;;;;;;5070798;28;20484;-65
2021/11/11 09:38:20;;;;;;;25.95;11.90;;;11.10;99.90;;;;;;5071395;28;20024;-66
2021/11/11 09:40:46;;;;;;;19.88;12.68;;;12.00;99.90;;;;;;5061702;28;20029;-65
2021/11/11 09:43:13;;;;;;;17.30;11.38;;;13.30;99.90;;;;;;5050579;28;20032;-65
2021/11/11 09:45:39;;;;;;;17.38;11.32;;;13.90;99.90;;;;;;5051406;28;20479;-65
2021/11/11 09:48:05;;;;;;;17.48;12.43;;;14.40;99.90;;;;;;5054941;28;20462;-65
2021/11/11 09:50:32;;;;;;;19.50;11.80;;;14.90;99.00;;;;;;5055509;28;20086;-65
2021/11/11 09:53:04;;;;;;;16.20;11.90;;;15.40;98.80;;;;;;5055665;28;20091;-65
2021/11/11 09:58:34;;;;;;;12.97;11.13;;;16.00;96.00;;;;;;5024440;28;20139;-65
2021/11/11 10:01:07;;;;;;;14.68;11.50;;;15.50;96.60;;;;;;5055131;28;20100;-66
2021/11/11 10:03:33;;;;;;;;;;;15.20;96.40;;;;;;5055883;28;20032;-65
2021/11/11 10:05:59;;;;;;;20.58;11.95;;;15.50;96.80;;;;;;5054286;28;19977;-65
2021/11/11 10:08:40;;;;;;;14.88;11.40;;;16.00;96.80;;;;;;5055117;28;20431;-65
2021/11/11 10:11:26;;;;;;;16.08;11.93;;;16.30;94.50;;;;;;5054759;28;20037;-66
2021/11/11 10:14:16;;;;;;;16.60;11.15;;;16.60;94.70;;;;;;5055154;28;20017;-67
2021/11/11 10:16:52;;;;;;;12.93;10.57;;;17.20;94.20;;;;;;5054558;28;20065;-67
2021/11/11 10:19:19;;;;;;;12.32;10.82;;;17.10;94.20;;;;;;5055196;28;20027;-66
2021/11/11 10:21:55;;;;;;;10.90;9.45;;;17.20;93.90;;;;;;5055568;28;20386;-66
2021/11/11 10:25:21;;;;;;;12.07;9.32;;;17.60;93.40;;;;;;5054383;28;20017;-66
2021/11/11 10:27:29;;;;;;;12.02;9.00;;;17.40;93.70;;;;;;5046669;28;20025;-66
2021/11/11 10:29:54;;;;;;;17.65;10.95;;;17.80;93.60;;;;;;5054938;28;20052;-66
2021/11/11 10:32:27;;;;;;;17.15;11.82;;;18.10;93.40;;;;;;5054551;28;20048;-66
2021/11/11 10:34:55;;;;;;;16.13;12.57;;;17.90;92.90;;;;;;5053895;28;20021;-66
2021/11/11 10:37:24;;;;;;;18.83;12.85;;;17.80;93.00;;;;;;5054596;28;20021;-67
2021/11/11 10:39:54;;;;;;;14.10;11.45;;;17.60;92.90;;;;;;5054178;28;20029;-66
2021/11/11 10:42:23;;;;;;;13.70;11.27;;;17.70;92.90;;;;;;5054541;28;20107;-67
2021/11/11 10:44:50;;;;;;;14.55;10.40;;;18.10;93.40;;;;;;5053858;28;20493;-66
2021/11/11 10:47:21;;;;;;;14.02;11.07;;;17.90;93.20;;;;;;5054429;28;20187;-67
2021/11/11 10:49:47;;;;;;;12.20;10.30;;;17.90;92.90;;;;;;5054080;28;20047;-65
2021/11/11 10:52:35;;;;;;;13.88;11.15;;;17.90;93.50;;;;;;5053810;28;20075;-65
2021/11/11 10:55:10;;;;;;;13.07;9.70;;;17.70;94.10;;;;;;5053196;28;20036;-67
2021/11/11 10:57:40;;;;;;;13.50;10.50;;;18.00;93.70;;;;;;5053355;28;20033;-67
2021/11/11 11:00:12;;;;;;;16.83;10.50;;;17.80;93.40;;;;;;5053841;28;20037;-68
2021/11/11 11:03:03;;;;;;;12.37;10.70;;;17.60;93.70;;;;;;5054067;28;20032;-67
2021/11/11 11:05:36;;;;;;;12.60;10.45;;;17.80;93.80;;;;;;5052100;28;20464;-67
2021/11/11 11:08:11;;;;;;;14.00;10.05;;;18.40;93.20;;;;;;5054091;28;20106;-68
2021/11/11 11:10:39;;;;;;;13.80;10.38;;;18.50;93.40;;;;;;5053073;28;20029;-67
2021/11/11 11:13:12;;;;;;;15.13;11.23;;;18.50;92.80;;;;;;5053857;28;20150;-68
2021/11/11 11:15:43;;;;;;;15.32;10.40;;;18.70;92.20;;;;;;5052739;28;20100;-67
2021/11/11 11:18:09;;;;;;;13.27;10.15;;;19.10;92.60;;;;;;5053287;28;20036;-66
2021/11/11 11:20:35;;;;;;;13.48;9.98;;;18.90;91.50;;;;;;5053467;28;20033;-67
2021/11/11 11:23:22;;;;;;;15.43;10.57;;;18.60;91.90;;;;;;5054030;28;20070;-67
2021/11/11 11:25:54;;;;;;;13.48;10.38;;;19.60;91.40;;;;;;5052557;28;20021;-67
2021/11/11 11:28:36;;;;;;;14.73;10.77;;;19.70;91.00;;;;;;5054064;28;20029;-67
2021/11/11 11:31:04;;;;;;;13.10;10.30;;;20.00;91.00;;;;;;5053229;28;20025;-67
2021/11/11 11:33:41;;;;;;;11.57;10.38;;;19.80;90.00;;;;;;5053428;28;20090;-65
2021/11/11 11:36:08;;;;;;;13.23;10.52;;;19.70;90.80;;;;;;5052669;28;20091;-66
2021/11/11 11:38:38;;;;;;;14.50;10.73;;;19.80;90.20;;;;;;5053350;28;20025;-68
2021/11/11 11:41:25;;;;;;;12.95;10.95;;;19.90;89.80;;;;;;5052780;28;20033;-67
2021/11/11 11:43:51;;;;;;;12.90;10.82;;;18.80;91.70;;;;;;5052875;28;20049;-67
2021/11/11 11:46:23;;;;;;;16.27;10.63;;;19.20;91.00;;;;;;5052387;28;20029;-66
2021/11/11 11:48:49;;;;;;;14.00;10.43;;;19.10;91.10;;;;;;5052934;28;20025;-67
2021/11/11 11:51:18;;;;;;;11.93;10.60;;;19.40;91.40;;;;;;5053343;28;20029;-67
2021/11/11 11:53:51;;;;;;;11.70;10.48;;;19.60;90.70;;;;;;5053055;28;20368;-66
2021/11/11 11:56:22;;;;;;;17.95;11.75;;;19.30;90.80;;;;;;5051912;28;20032;-66
2021/11/11 11:59:02;;;;;;;19.33;12.63;;;19.10;91.20;;;;;;5052818;28;20538;-67
2021/11/11 12:06:52;;;;;;;16.88;12.80;;;17.80;92.60;;;;;;5052540;28;20167;-67
2021/11/11 12:09:29;;;;;;;15.65;12.45;;;17.50;93.70;;;;;;5051877;28;20049;-67
2021/11/11 12:40:05;;;;;;;18.10;13.25;;;19.10;91.50;;;;;;5021495;28;20148;-72
2021/11/11 12:42:40;;;;;;;17.17;13.63;;;18.80;91.20;;;;;;5052476;28;20025;-73
2021/11/11 12:45:12;;;;;;;17.67;12.95;;;18.90;91.50;;;;;;5051487;28;20104;-72
2021/11/11 12:47:51;;;;;;;16.73;12.73;;;19.10;91.60;;;;;;5052071;28;20111;-72
2021/11/11 12:50:38;;;;;;;21.48;14.02;;;19.40;91.30;;;;;;5052276;28;20498;-72
2021/11/11 12:53:42;;;;;;;21.13;15.68;;;19.20;90.90;;;;;;5052178;28;20471;-70
2021/11/11 12:56:18;;;;;;;17.23;13.25;;;19.50;91.00;;;;;;5051019;28;20029;-73
2021/11/11 12:59:00;;;;;;;16.35;13.63;;;19.60;91.00;;;;;;5051749;28;20025;-73
2021/11/11 13:01:36;;;;;;;18.27;13.65;;;19.50;90.20;;;;;;5051745;28;20025;-72
2021/11/11 13:04:01;;;;;;;18.85;14.25;;;19.30;90.70;;;;;;5051834;28;20041;-72
2021/11/11 13:06:41;;;;;;;19.50;14.02;;;19.30;90.70;;;;;;5051144;28;20529;-71
2021/11/11 13:09:18;;;;;;;17.52;14.65;;;19.40;90.70;;;;;;5050008;28;20394;-69
2021/11/11 13:11:47;;;;;;;17.20;13.95;;;19.10;91.10;;;;;;5051204;28;20029;-70
2021/11/11 13:14:16;;;;;;;18.10;14.45;;;19.10;91.10;;;;;;5051699;28;20025;-69
2021/11/11 13:16:55;;;;;;;21.33;14.93;;;19.30;90.90;;;;;;5051613;28;20016;-71
2021/11/11 13:19:31;;;;;;;20.58;15.52;;;19.10;91.30;;;;;;5051590;28;20096;-70
2021/11/11 13:22:04;;;;;;;19.38;14.75;;;19.00;91.10;;;;;;5051310;28;20391;-69
2021/11/11 13:27:27;;;;;;;20.27;14.35;;;19.60;90.50;;;;;;5051507;28;20061;-69
2021/11/11 15:20:08;;;;;;;38.13;23.27;;;11.70;99.90;;;;;;5043072;28;20025;-66
2021/11/11 16:03:48;;;;;;;37.50;24.63;;;8.70;99.90;;;;;;5033251;28;20032;-76
2021/11/11 16:25:24;;;;;;;37.90;25.05;;;7.70;99.90;;;;;;5051724;28;20372;-71
2021/11/11 16:27:50;;;;;;;39.92;26.10;;;7.60;99.90;;;;;;5052452;28;20048;-71
2021/11/11 16:30:19;;;;;;;37.28;23.67;;;7.60;99.90;;;;;;5051945;28;20068;-71